Time;durP1;ratioP1;P1;durP2;ratioP2;P2;SDS_P1;SDS_P2;PMS_P1;PMS_P2;Temp;Humidity;BMP_temperature;BMP_pressure;BME280_temperature;BME280_humidity;BME280_pressure;Samples;Min_cycle;Max_cycle;Signal;HPM_P1;HPM_P2
2023/06/07 00:01:33;;;;;;;2.53;1.90;;;;;;;;;;5053419;28;20719;-55
2023/06/07 00:04:02;;;;;;;3.75;2.40;;;;;;;;;;5053752;28;20220;-55
2023/06/07 00:06:32;;;;;;;3.40;2.35;;;;;;;;;;5054113;28;20212;-55
2023/06/07 00:08:59;;;;;;;2.10;1.80;;;;;;;;;;5053654;28;20209;-55
2023/06/07 00:11:26;;;;;;;6.20;2.30;;;;;;;;;;5053743;28;20295;-54
2023/06/07 00:13:53;;;;;;;3.17;1.80;;;;;;;;;;5053422;28;20558;-56
2023/06/07 00:16:22;;;;;;;4.03;2.15;;;;;;;;;;5053623;28;20250;-55
2023/06/07 00:18:49;;;;;;;4.18;2.30;;;;;;;;;;5053507;28;20246;-54
2023/06/07 00:21:20;;;;;;;2.05;1.77;;;;;;;;;;5053407;28;20228;-56
2023/06/07 00:23:47;;;;;;;2.75;2.05;;;;;;;;;;5053372;28;20211;-56
2023/06/07 00:26:15;;;;;;;2.78;1.73;;;;;;;;;;5053496;28;20672;-55
2023/06/07 00:28:45;;;;;;;3.10;1.95;;;;;;;;;;4986529;28;20199;-56
2023/06/07 00:31:12;;;;;;;3.78;2.55;;;;;;;;;;5053134;28;20681;-55
2023/06/07 00:33:39;;;;;;;2.50;1.98;;;;;;;;;;5053106;28;20544;-53
2023/06/07 00:36:06;;;;;;;3.15;2.00;;;;;;;;;;5053380;28;20204;-52
2023/06/07 00:38:33;;;;;;;2.30;1.83;;;;;;;;;;5053262;28;20258;-55
2023/06/07 00:41:01;;;;;;;3.20;2.30;;;;;;;;;;5035729;28;20223;-54
2023/06/07 00:43:28;;;;;;;2.03;1.60;;;;;;;;;;5053023;28;20238;-55
2023/06/07 00:45:55;;;;;;;3.20;1.92;;;;;;;;;;5035863;28;20207;-53
2023/06/07 00:48:22;;;;;;;3.88;2.03;;;;;;;;;;5052955;28;20654;-54
2023/06/07 00:50:50;;;;;;;2.30;1.85;;;;;;;;;;5035541;28;20200;-56
2023/06/07 00:53:17;;;;;;;2.83;1.98;;;;;;;;;;5053135;28;20657;-52
2023/06/07 00:55:45;;;;;;;3.13;2.10;;;;;;;;;;5035721;28;20249;-55
2023/06/07 00:58:14;;;;;;;2.40;1.80;;;;;;;;;;5052839;28;20610;-53
2023/06/07 01:00:41;;;;;;;2.08;1.70;;;;;;;;;;5035410;28;20223;-54
2023/06/07 01:03:08;;;;;;;3.25;1.98;;;;;;;;;;5035280;28;20219;-52
2023/06/07 01:05:36;;;;;;;2.78;2.10;;;;;;;;;;5052964;28;20204;-52
2023/06/07 01:08:04;;;;;;;4.07;2.15;;;;;;;;;;5053247;28;20294;-54
2023/06/07 01:10:31;;;;;;;3.65;2.17;;;;;;;;;;5018862;28;20734;-55
2023/06/07 01:13:03;;;;;;;3.38;2.20;;;;;;;;;;5052767;28;20211;-52
2023/06/07 01:15:31;;;;;;;3.65;2.38;;;;;;;;;;5053473;28;20188;-54
2023/06/07 01:17:59;;;;;;;2.60;2.00;;;;;;;;;;5035437;28;20231;-54
2023/06/07 01:20:26;;;;;;;3.30;2.33;;;;;;;;;;5018793;28;20569;-54
2023/06/07 01:22:56;;;;;;;2.72;2.28;;;;;;;;;;5018661;28;20665;-52
2023/06/07 01:25:25;;;;;;;2.88;2.03;;;;;;;;;;5035722;28;20246;-53
2023/06/07 01:27:53;;;;;;;2.45;1.95;;;;;;;;;;5035553;28;20291;-55
2023/06/07 01:30:22;;;;;;;3.55;2.25;;;;;;;;;;5035289;28;20258;-53
2023/06/07 01:32:50;;;;;;;3.92;2.45;;;;;;;;;;5052724;28;20569;-51
2023/06/07 01:35:19;;;;;;;2.40;1.73;;;;;;;;;;5018739;28;20208;-54
2023/06/07 01:37:47;;;;;;;3.97;2.00;;;;;;;;;;5052629;28;20258;-56
2023/06/07 01:40:15;;;;;;;2.70;1.92;;;;;;;;;;5053470;28;20196;-56
2023/06/07 01:42:43;;;;;;;3.95;1.85;;;;;;;;;;5038553;28;20220;-56
2023/06/07 01:45:11;;;;;;;3.05;2.20;;;;;;;;;;5038282;28;20243;-54
2023/06/07 01:47:38;;;;;;;2.70;2.17;;;;;;;;;;5038201;28;20684;-56
2023/06/07 01:50:08;;;;;;;4.57;2.22;;;;;;;;;;5038059;28;20215;-52
2023/06/07 01:52:35;;;;;;;2.47;1.92;;;;;;;;;;5056203;28;20200;-55
2023/06/07 01:55:04;;;;;;;2.95;2.30;;;;;;;;;;5038118;28;20219;-56
2023/06/07 01:58:00;;;;;;;3.08;2.00;;;;;;;;;;5056006;28;20568;-56
2023/06/07 02:00:37;;;;;;;3.08;2.13;;;;;;;;;;5038079;28;20211;-54
2023/06/07 02:03:09;;;;;;;3.00;2.28;;;;;;;;;;5021467;28;20206;-56
2023/06/07 02:05:38;;;;;;;3.97;2.03;;;;;;;;;;5021631;28;20196;-53
2023/06/07 02:08:29;;;;;;;2.35;2.13;;;;;;;;;;5038165;28;20204;-51
2023/06/07 02:10:58;;;;;;;2.47;1.88;;;;;;;;;;5038219;28;20248;-53
2023/06/07 02:13:33;;;;;;;2.30;1.88;;;;;;;;;;5055572;28;20288;-56
2023/06/07 02:16:04;;;;;;;3.05;2.42;;;;;;;;;;5037676;28;20176;-52
2023/06/07 02:18:37;;;;;;;3.97;2.28;;;;;;;;;;5037719;28;20184;-54
2023/06/07 02:21:04;;;;;;;3.15;2.03;;;;;;;;;;5037325;28;20228;-56
2023/06/07 02:23:32;;;;;;;2.78;2.17;;;;;;;;;;5055075;28;20204;-53
2023/06/07 02:26:01;;;;;;;2.67;2.30;;;;;;;;;;5037484;28;20204;-52
2023/06/07 02:28:28;;;;;;;3.53;2.28;;;;;;;;;;5037469;28;20196;-54
2023/06/07 02:30:57;;;;;;;3.05;2.42;;;;;;;;;;5055204;28;20230;-56
2023/06/07 02:33:24;;;;;;;3.45;2.50;;;;;;;;;;5036903;28;20200;-53
2023/06/07 02:35:51;;;;;;;2.83;2.22;;;;;;;;;;5055047;28;20205;-54
2023/06/07 02:38:19;;;;;;;2.28;2.05;;;;;;;;;;5037523;28;20207;-53
2023/06/07 02:40:47;;;;;;;3.22;2.33;;;;;;;;;;5055355;28;20192;-55
2023/06/07 02:43:14;;;;;;;3.63;2.40;;;;;;;;;;5037146;28;20200;-52
2023/06/07 02:45:41;;;;;;;3.45;2.50;;;;;;;;;;5054963;28;20211;-52
2023/06/07 02:48:08;;;;;;;2.80;2.10;;;;;;;;;;5037413;28;20200;-56
2023/06/07 02:50:36;;;;;;;5.30;2.45;;;;;;;;;;5004418;28;20208;-53
2023/06/07 02:53:06;;;;;;;2.33;1.92;;;;;;;;;;5036365;28;20200;-54
2023/06/07 02:55:34;;;;;;;3.33;1.80;;;;;;;;;;5037459;28;20204;-53
2023/06/07 02:58:01;;;;;;;4.05;2.53;;;;;;;;;;5037389;28;20200;-56
2023/06/07 03:00:32;;;;;;;3.85;2.35;;;;;;;;;;5037071;28;20203;-54
2023/06/07 03:03:06;;;;;;;3.05;2.25;;;;;;;;;;5037149;28;20191;-57
2023/06/07 03:05:37;;;;;;;4.15;2.42;;;;;;;;;;5037452;28;20212;-56
2023/06/07 03:08:10;;;;;;;4.63;2.28;;;;;;;;;;5036963;28;20615;-53
2023/06/07 03:10:40;;;;;;;2.80;2.35;;;;;;;;;;5037163;28;20188;-54
2023/06/07 03:13:09;;;;;;;2.65;2.17;;;;;;;;;;5036840;28;20200;-55
2023/06/07 03:15:38;;;;;;;3.47;2.60;;;;;;;;;;5036637;28;20200;-56
2023/06/07 03:18:05;;;;;;;3.38;2.33;;;;;;;;;;5036542;28;20681;-52
2023/06/07 03:20:37;;;;;;;3.10;2.35;;;;;;;;;;5037075;28;20204;-53
2023/06/07 03:23:10;;;;;;;4.25;2.83;;;;;;;;;;5036450;28;20199;-53
2023/06/07 03:25:41;;;;;;;4.15;2.85;;;;;;;;;;5036598;28;20200;-57
2023/06/07 03:28:08;;;;;;;3.33;2.80;;;;;;;;;;5034514;28;20207;-56
2023/06/07 03:30:41;;;;;;;4.07;2.58;;;;;;;;;;5028091;28;20192;-56
2023/06/07 03:33:08;;;;;;;4.55;3.25;;;;;;;;;;5031280;28;20645;-55
2023/06/07 03:35:39;;;;;;;4.40;3.28;;;;;;;;;;5030169;28;20203;-54
2023/06/07 03:38:10;;;;;;;4.22;3.08;;;;;;;;;;5029171;28;20196;-56
2023/06/07 03:40:38;;;;;;;4.13;3.17;;;;;;;;;;5029868;28;20319;-56
2023/06/07 03:43:05;;;;;;;5.25;3.80;;;;;;;;;;5029334;28;20234;-56
2023/06/07 03:45:32;;;;;;;6.13;3.60;;;;;;;;;;5048557;28;20191;-56
2023/06/07 03:48:07;;;;;;;4.93;3.63;;;;;;;;;;5029917;28;20290;-54
2023/06/07 03:50:35;;;;;;;4.43;3.65;;;;;;;;;;5043900;28;20201;-56
2023/06/07 03:53:02;;;;;;;4.07;3.40;;;;;;;;;;5009640;28;20734;-55
2023/06/07 03:55:32;;;;;;;6.22;3.70;;;;;;;;;;5030441;28;20246;-56
2023/06/07 03:58:00;;;;;;;4.82;3.53;;;;;;;;;;5024018;28;20220;-57
2023/06/07 04:00:29;;;;;;;4.88;3.90;;;;;;;;;;5028567;28;20217;-54
2023/06/07 04:02:56;;;;;;;3.88;3.30;;;;;;;;;;5029494;28;20625;-57
2023/06/07 04:05:26;;;;;;;5.53;3.85;;;;;;;;;;5020400;28;20237;-56
2023/06/07 04:07:59;;;;;;;5.47;4.30;;;;;;;;;;5034962;28;20231;-58
2023/06/07 04:10:28;;;;;;;5.95;3.65;;;;;;;;;;5034764;28;20222;-57
2023/06/07 04:12:55;;;;;;;5.30;3.70;;;;;;;;;;5034672;28;20311;-58
2023/06/07 04:15:23;;;;;;;7.10;4.15;;;;;;;;;;5035066;28;20216;-57
2023/06/07 04:17:50;;;;;;;6.70;4.18;;;;;;;;;;5034932;28;20226;-58
2023/06/07 04:20:19;;;;;;;6.47;4.20;;;;;;;;;;5035413;28;20244;-58
2023/06/07 04:22:51;;;;;;;5.55;4.07;;;;;;;;;;5034808;28;20255;-57
2023/06/07 04:25:31;;;;;;;5.95;4.15;;;;;;;;;;5052759;28;20220;-57
2023/06/07 04:28:01;;;;;;;7.20;4.30;;;;;;;;;;5034617;28;20234;-58
2023/06/07 04:30:40;;;;;;;6.82;4.07;;;;;;;;;;5018965;28;20232;-56
2023/06/07 04:33:12;;;;;;;7.22;4.70;;;;;;;;;;5031129;28;20227;-58
2023/06/07 04:35:44;;;;;;;6.25;4.20;;;;;;;;;;5028004;28;20235;-58
2023/06/07 04:38:15;;;;;;;6.15;4.13;;;;;;;;;;5015009;28;20534;-58
2023/06/07 04:40:49;;;;;;;5.55;4.18;;;;;;;;;;5014978;28;20239;-55
2023/06/07 04:43:25;;;;;;;5.20;3.92;;;;;;;;;;5031296;28;20345;-57
2023/06/07 04:45:55;;;;;;;6.35;4.55;;;;;;;;;;5034704;28;20220;-57
2023/06/07 04:48:27;;;;;;;5.07;4.10;;;;;;;;;;5034344;28;20219;-57
2023/06/07 04:51:03;;;;;;;7.05;4.80;;;;;;;;;;5034238;28;20228;-57
2023/06/07 04:53:37;;;;;;;6.30;4.65;;;;;;;;;;5034322;28;20258;-54
2023/06/07 04:56:09;;;;;;;7.38;4.68;;;;;;;;;;5033068;28;20224;-57
2023/06/07 04:58:39;;;;;;;6.65;4.18;;;;;;;;;;5034506;28;20285;-57
2023/06/07 05:01:11;;;;;;;6.10;3.92;;;;;;;;;;5034374;28;20226;-56
2023/06/07 05:03:42;;;;;;;5.53;4.35;;;;;;;;;;5047647;28;20236;-58
2023/06/07 05:06:12;;;;;;;5.75;3.90;;;;;;;;;;5028785;28;20220;-54
2023/06/07 05:08:40;;;;;;;5.30;4.25;;;;;;;;;;5023095;28;20610;-57
2023/06/07 05:11:07;;;;;;;4.93;3.70;;;;;;;;;;5024618;28;20262;-56
2023/06/07 05:13:34;;;;;;;7.15;3.75;;;;;;;;;;5045517;28;20585;-56
2023/06/07 05:16:03;;;;;;;6.60;4.15;;;;;;;;;;5026373;28;20619;-52
2023/06/07 05:18:31;;;;;;;7.03;3.92;;;;;;;;;;5030020;28;20208;-57
2023/06/07 05:21:01;;;;;;;6.50;3.63;;;;;;;;;;5029553;28;20212;-58
2023/06/07 05:23:28;;;;;;;5.20;3.92;;;;;;;;;;5031550;28;20220;-53
2023/06/07 05:25:57;;;;;;;5.30;3.47;;;;;;;;;;5027084;28;20303;-57
2023/06/07 05:28:24;;;;;;;4.30;3.28;;;;;;;;;;5031779;28;20200;-56
2023/06/07 05:30:56;;;;;;;3.97;3.20;;;;;;;;;;5038630;28;20200;-56
2023/06/07 05:33:31;;;;;;;3.67;3.28;;;;;;;;;;5038787;28;20611;-56
2023/06/07 05:36:00;;;;;;;5.90;3.58;;;;;;;;;;5038877;28;20204;-57
2023/06/07 05:38:27;;;;;;;3.80;3.33;;;;;;;;;;5038427;28;20258;-58
2023/06/07 05:40:55;;;;;;;4.50;3.47;;;;;;;;;;5038586;28;20203;-56
2023/06/07 05:43:22;;;;;;;4.50;3.08;;;;;;;;;;5038096;28;21041;-57
2023/06/07 05:45:50;;;;;;;5.18;3.28;;;;;;;;;;5038595;28;20200;-55
2023/06/07 05:48:17;;;;;;;5.57;3.47;;;;;;;;;;5038109;28;20288;-57
2023/06/07 05:50:44;;;;;;;4.07;2.97;;;;;;;;;;5038218;28;20611;-55
2023/06/07 05:53:12;;;;;;;3.95;3.00;;;;;;;;;;5055908;28;20660;-56
2023/06/07 05:55:39;;;;;;;5.57;3.17;;;;;;;;;;5056174;28;20207;-56
2023/06/07 05:58:06;;;;;;;4.20;3.22;;;;;;;;;;5055829;28;20211;-56
2023/06/07 06:00:33;;;;;;;5.82;3.50;;;;;;;;;;5056113;28;20204;-55
2023/06/07 06:03:01;;;;;;;4.60;3.13;;;;;;;;;;5056086;28;20230;-56
2023/06/07 06:05:29;;;;;;;4.03;2.60;;;;;;;;;;5055873;28;20202;-57
2023/06/07 06:07:57;;;;;;;4.03;2.75;;;;;;;;;;5055597;28;20196;-56
2023/06/07 06:10:24;;;;;;;3.72;2.80;;;;;;;;;;5055493;28;20204;-55
2023/06/07 06:12:51;;;;;;;3.03;2.50;;;;;;;;;;5056007;28;20302;-57
2023/06/07 06:15:19;;;;;;;4.35;2.72;;;;;;;;;;5055469;28;20228;-56
2023/06/07 06:17:48;;;;;;;3.83;2.65;;;;;;;;;;5055875;28;20556;-57
2023/06/07 06:20:16;;;;;;;4.15;2.85;;;;;;;;;;5055465;28;20196;-56
2023/06/07 06:22:43;;;;;;;3.95;2.72;;;;;;;;;;5055232;28;20220;-55
2023/06/07 06:25:13;;;;;;;4.45;3.00;;;;;;;;;;5055588;28;20200;-57
2023/06/07 06:27:40;;;;;;;3.50;2.38;;;;;;;;;;5055270;28;20287;-56
2023/06/07 06:30:11;;;;;;;2.63;2.30;;;;;;;;;;5055293;28;20777;-56
2023/06/07 06:32:39;;;;;;;3.53;2.58;;;;;;;;;;5055134;28;20571;-54
2023/06/07 06:35:07;;;;;;;3.80;2.65;;;;;;;;;;5055283;28;20200;-56
2023/06/07 06:37:34;;;;;;;3.53;2.38;;;;;;;;;;5055118;28;20231;-56
2023/06/07 06:40:01;;;;;;;3.58;2.40;;;;;;;;;;5055336;28;20208;-54
2023/06/07 06:42:29;;;;;;;2.88;2.30;;;;;;;;;;5055271;28;20270;-56
2023/06/07 06:45:16;;;;;;;2.47;2.10;;;;;;;;;;5054334;28;20313;-56
2023/06/07 06:47:44;;;;;;;2.95;2.33;;;;;;;;;;5054901;28;20210;-56
2023/06/07 06:50:12;;;;;;;3.70;2.13;;;;;;;;;;5054732;28;20683;-56
2023/06/07 06:52:57;;;;;;;3.95;2.40;;;;;;;;;;5055034;28;20207;-57
2023/06/07 06:55:25;;;;;;;2.95;2.22;;;;;;;;;;5054919;28;20207;-56
2023/06/07 06:57:52;;;;;;;3.95;2.50;;;;;;;;;;5054873;28;20200;-56
2023/06/07 07:00:20;;;;;;;3.50;2.40;;;;;;;;;;5054721;28;20262;-57
2023/06/07 07:02:47;;;;;;;3.08;2.10;;;;;;;;;;5054550;28;20238;-56
2023/06/07 07:05:15;;;;;;;3.90;2.50;;;;;;;;;;5054314;28;20230;-55
2023/06/07 07:07:42;;;;;;;2.80;2.17;;;;;;;;;;5054553;28;20657;-56
2023/06/07 07:10:12;;;;;;;3.22;2.60;;;;;;;;;;5054721;28;20208;-57
2023/06/07 07:12:41;;;;;;;3.30;2.30;;;;;;;;;;5054406;28;20294;-57
2023/06/07 07:15:09;;;;;;;4.78;2.50;;;;;;;;;;5054232;28;20204;-57
2023/06/07 07:17:47;;;;;;;2.53;2.03;;;;;;;;;;5054867;28;20208;-57
2023/06/07 07:20:16;;;;;;;3.05;2.20;;;;;;;;;;5054638;28;20195;-56
2023/06/07 07:22:44;;;;;;;2.67;1.95;;;;;;;;;;5054313;28;20220;-56
2023/06/07 07:25:12;;;;;;;2.13;1.70;;;;;;;;;;5054186;28;20204;-56
2023/06/07 07:27:39;;;;;;;2.28;1.75;;;;;;;;;;5054207;28;20234;-55
2023/06/07 07:30:09;;;;;;;2.67;2.10;;;;;;;;;;5054497;28;20195;-55
2023/06/07 07:32:37;;;;;;;2.45;1.98;;;;;;;;;;5054326;28;20676;-57
2023/06/07 07:35:05;;;;;;;3.08;2.00;;;;;;;;;;5054264;28;20287;-57
2023/06/07 07:37:32;;;;;;;1.75;1.40;;;;;;;;;;5053644;28;20232;-56
2023/06/07 07:39:59;;;;;;;1.85;1.42;;;;;;;;;;5053850;28;20207;-57
2023/06/07 07:42:27;;;;;;;1.75;1.38;;;;;;;;;;5053806;28;20215;-55
2023/06/07 07:44:54;;;;;;;2.92;1.15;;;;;;;;;;5054192;28;20598;-57
2023/06/07 07:47:21;;;;;;;2.10;1.60;;;;;;;;;;5053774;28;20204;-57
2023/06/07 07:49:51;;;;;;;1.65;1.35;;;;;;;;;;5053536;28;20208;-55
2023/06/07 07:52:19;;;;;;;2.08;1.38;;;;;;;;;;5054008;28;20235;-57
2023/06/07 07:54:48;;;;;;;1.42;1.20;;;;;;;;;;5053246;28;20204;-57
2023/06/07 07:57:15;;;;;;;1.20;1.10;;;;;;;;;;5053386;28;20604;-56
2023/06/07 07:59:43;;;;;;;1.40;1.30;;;;;;;;;;5053317;28;20204;-57
2023/06/07 08:02:10;;;;;;;2.20;1.35;;;;;;;;;;5053204;28;20677;-57
2023/06/07 08:04:37;;;;;;;2.28;1.70;;;;;;;;;;5053839;28;20200;-56
2023/06/07 08:07:05;;;;;;;2.55;1.20;;;;;;;;;;5053447;28;20200;-56
2023/06/07 08:09:32;;;;;;;3.42;2.00;;;;;;;;;;5053940;28;20215;-57
2023/06/07 08:11:59;;;;;;;1.98;1.45;;;;;;;;;;5053347;28;20251;-58
2023/06/07 08:14:26;;;;;;;2.10;1.60;;;;;;;;;;5053683;28;20258;-56
2023/06/07 08:16:53;;;;;;;1.75;1.45;;;;;;;;;;5053638;28;20204;-56
2023/06/07 08:19:20;;;;;;;1.90;1.55;;;;;;;;;;5053408;28;20200;-57
2023/06/07 08:21:48;;;;;;;1.85;1.33;;;;;;;;;;5053265;28;20250;-56
2023/06/07 08:24:17;;;;;;;2.47;1.27;;;;;;;;;;5053527;28;20242;-57
2023/06/07 08:26:45;;;;;;;2.30;1.42;;;;;;;;;;5053407;28;20211;-56
2023/06/07 08:29:12;;;;;;;3.55;1.58;;;;;;;;;;5053159;28;20204;-57
2023/06/07 08:31:43;;;;;;;2.03;1.27;;;;;;;;;;5053072;28;20208;-57
2023/06/07 08:34:11;;;;;;;2.72;1.50;;;;;;;;;;5052407;28;20257;-56
2023/06/07 08:36:39;;;;;;;2.15;1.33;;;;;;;;;;5052744;28;20567;-57
2023/06/07 08:39:07;;;;;;;2.25;1.13;;;;;;;;;;5053094;28;20204;-57
2023/06/07 08:41:34;;;;;;;1.65;1.40;;;;;;;;;;5053128;28;20196;-57
2023/06/07 08:44:02;;;;;;;2.72;1.63;;;;;;;;;;5052860;28;20243;-55
2023/06/07 08:46:31;;;;;;;2.63;1.77;;;;;;;;;;5053290;28;20257;-57
2023/06/07 08:49:02;;;;;;;2.28;1.50;;;;;;;;;;5035975;28;20212;-56
2023/06/07 08:51:33;;;;;;;1.40;1.23;;;;;;;;;;5056374;28;20208;-57
2023/06/07 08:54:02;;;;;;;2.17;1.23;;;;;;;;;;5039802;28;20253;-57
2023/06/07 08:56:31;;;;;;;1.42;1.30;;;;;;;;;;5057147;28;20296;-58
2023/06/07 08:58:59;;;;;;;1.48;1.13;;;;;;;;;;5057003;28;20212;-54
2023/06/07 09:01:28;;;;;;;1.67;1.25;;;;;;;;;;5056777;28;20249;-56
2023/06/07 09:03:58;;;;;;;1.70;1.52;;;;;;;;;;5057236;28;20281;-57
2023/06/07 09:06:26;;;;;;;1.98;1.67;;;;;;;;;;5039288;28;20200;-57
2023/06/07 09:08:54;;;;;;;1.67;1.35;;;;;;;;;;5057162;28;20192;-56
2023/06/07 09:11:21;;;;;;;1.83;1.30;;;;;;;;;;5039121;28;20203;-56
2023/06/07 09:13:49;;;;;;;2.45;1.17;;;;;;;;;;5056915;28;20204;-57
2023/06/07 09:16:17;;;;;;;1.55;1.05;;;;;;;;;;5057084;28;20212;-57
2023/06/07 09:18:47;;;;;;;1.40;0.98;;;;;;;;;;5056801;28;20568;-56
2023/06/07 09:21:23;;;;;;;1.27;1.13;;;;;;;;;;5056789;28;20200;-57
2023/06/07 09:23:51;;;;;;;1.73;1.27;;;;;;;;;;5056837;28;20226;-54
2023/06/07 09:26:22;;;;;;;1.83;1.30;;;;;;;;;;5056446;28;20215;-58
2023/06/07 09:28:49;;;;;;;2.45;1.40;;;;;;;;;;5056509;28;20257;-57
2023/06/07 09:31:30;;;;;;;2.65;1.38;;;;;;;;;;5038764;28;20287;-56
2023/06/07 09:33:58;;;;;;;2.20;1.20;;;;;;;;;;5056769;28;20199;-55
2023/06/07 09:36:27;;;;;;;1.75;1.27;;;;;;;;;;5056307;28;20220;-55
2023/06/07 09:38:56;;;;;;;1.80;1.40;;;;;;;;;;5056279;28;20602;-57
2023/06/07 09:41:30;;;;;;;2.40;1.40;;;;;;;;;;5056545;28;20188;-55
2023/06/07 09:43:57;;;;;;;1.42;1.27;;;;;;;;;;5056344;28;20297;-57
2023/06/07 09:46:34;;;;;;;2.10;1.20;;;;;;;;;;5056223;28;20282;-57
2023/06/07 09:49:01;;;;;;;1.75;1.38;;;;;;;;;;5056162;28;20211;-56
2023/06/07 09:51:38;;;;;;;1.42;1.30;;;;;;;;;;5038305;28;20279;-56
2023/06/07 09:54:07;;;;;;;2.33;1.30;;;;;;;;;;5056277;28;20219;-57
2023/06/07 09:56:38;;;;;;;1.67;1.13;;;;;;;;;;5055995;28;20254;-56
2023/06/07 09:59:11;;;;;;;3.50;1.55;;;;;;;;;;5056069;28;20200;-56
2023/06/07 10:01:41;;;;;;;2.05;1.30;;;;;;;;;;5055908;28;20199;-55
2023/06/07 10:04:11;;;;;;;1.98;1.35;;;;;;;;;;5055760;28;20224;-57
2023/06/07 10:06:45;;;;;;;1.80;1.50;;;;;;;;;;5055963;28;20207;-57
2023/06/07 10:09:13;;;;;;;2.10;1.58;;;;;;;;;;5055817;28;20207;-57
2023/06/07 10:11:45;;;;;;;1.63;1.23;;;;;;;;;;5021534;28;20664;-58
2023/06/07 10:14:14;;;;;;;2.08;1.40;;;;;;;;;;5055545;28;20262;-57
2023/06/07 10:16:52;;;;;;;2.60;1.48;;;;;;;;;;5055513;28;20684;-56
2023/06/07 10:19:39;;;;;;;1.63;1.45;;;;;;;;;;5055689;28;20196;-57
2023/06/07 10:22:14;;;;;;;1.73;1.45;;;;;;;;;;5038169;28;20234;-57
2023/06/07 10:25:07;;;;;;;3.22;1.40;;;;;;;;;;5055602;28;20208;-56
2023/06/07 10:27:48;;;;;;;1.45;1.30;;;;;;;;;;5038610;28;20223;-55
2023/06/07 10:30:16;;;;;;;2.03;1.45;;;;;;;;;;5055371;28;20207;-57
2023/06/07 10:32:44;;;;;;;2.15;1.40;;;;;;;;;;5055175;28;20227;-56
2023/06/07 10:35:17;;;;;;;3.55;1.40;;;;;;;;;;5038203;28;20204;-56
2023/06/07 10:37:45;;;;;;;2.08;1.30;;;;;;;;;;5037392;28;20671;-57
2023/06/07 10:40:14;;;;;;;2.70;1.73;;;;;;;;;;5055062;28;20211;-56
2023/06/07 10:42:44;;;;;;;2.67;1.50;;;;;;;;;;5055141;28;20211;-56
2023/06/07 10:45:18;;;;;;;2.40;1.50;;;;;;;;;;5054883;28;20290;-55
2023/06/07 10:47:48;;;;;;;3.85;1.58;;;;;;;;;;5055218;28;20231;-57
2023/06/07 10:50:27;;;;;;;1.80;1.15;;;;;;;;;;5054941;28;20656;-57
2023/06/07 10:52:58;;;;;;;2.33;1.20;;;;;;;;;;5055239;28;20224;-57
2023/06/07 10:55:28;;;;;;;1.85;1.08;;;;;;;;;;5053892;28;20661;-56
2023/06/07 10:57:55;;;;;;;1.98;1.35;;;;;;;;;;5044362;28;20228;-56
2023/06/07 11:00:30;;;;;;;1.83;1.27;;;;;;;;;;5043584;28;20204;-56
2023/06/07 11:03:09;;;;;;;1.90;1.42;;;;;;;;;;5044598;28;20204;-56
2023/06/07 11:05:55;;;;;;;2.38;1.42;;;;;;;;;;5044271;28;20594;-56
2023/06/07 11:08:26;;;;;;;1.60;1.17;;;;;;;;;;5045195;28;20188;-58
2023/06/07 11:11:01;;;;;;;1.85;1.33;;;;;;;;;;5043863;28;20531;-56
2023/06/07 11:13:43;;;;;;;1.98;1.27;;;;;;;;;;5042417;28;20314;-56
2023/06/07 11:16:23;;;;;;;1.80;1.40;;;;;;;;;;5039944;28;20271;-58
2023/06/07 11:18:55;;;;;;;2.58;1.40;;;;;;;;;;5046271;28;20208;-56
2023/06/07 11:22:00;;;;;;;2.17;1.45;;;;;;;;;;5050870;28;20204;-57
2023/06/07 11:24:27;;;;;;;1.25;1.00;;;;;;;;;;5015261;28;20215;-57
2023/06/07 11:26:55;;;;;;;3.13;1.60;;;;;;;;;;5044168;28;20259;-56
2023/06/07 11:29:22;;;;;;;3.97;1.50;;;;;;;;;;5044554;28;20197;-57
2023/06/07 11:32:00;;;;;;;2.08;1.35;;;;;;;;;;5054397;28;20200;-57
2023/06/07 11:34:31;;;;;;;1.92;1.10;;;;;;;;;;5054385;28;20226;-57
2023/06/07 11:37:07;;;;;;;2.08;1.45;;;;;;;;;;5054239;28;20211;-57
2023/06/07 11:39:34;;;;;;;1.80;1.10;;;;;;;;;;5054106;28;20215;-56
2023/06/07 11:42:02;;;;;;;1.80;1.40;;;;;;;;;;5053973;28;20250;-56
2023/06/07 11:44:30;;;;;;;1.88;1.30;;;;;;;;;;5054122;28;20322;-58
2023/06/07 11:46:58;;;;;;;2.20;1.40;;;;;;;;;;5053986;28;20204;-58
2023/06/07 11:49:25;;;;;;;2.25;1.48;;;;;;;;;;5036427;28;20200;-56
2023/06/07 11:51:56;;;;;;;1.75;1.35;;;;;;;;;;5045780;28;20204;-56
2023/06/07 11:54:25;;;;;;;1.80;1.30;;;;;;;;;;5033805;28;20208;-55
2023/06/07 11:56:53;;;;;;;2.78;1.50;;;;;;;;;;5033877;28;20200;-57
2023/06/07 11:59:22;;;;;;;2.75;1.67;;;;;;;;;;5033999;28;20218;-57
2023/06/07 12:01:51;;;;;;;1.55;1.38;;;;;;;;;;5033837;28;20205;-57
2023/06/07 12:04:20;;;;;;;2.28;1.20;;;;;;;;;;5038785;28;20221;-56
2023/06/07 12:06:49;;;;;;;1.92;1.45;;;;;;;;;;5042546;28;20219;-58
2023/06/07 12:09:19;;;;;;;1.25;1.10;;;;;;;;;;5042998;28;20212;-58
2023/06/07 12:11:47;;;;;;;2.42;1.30;;;;;;;;;;5042356;28;20201;-56
2023/06/07 12:14:30;;;;;;;3.15;1.85;;;;;;;;;;5042861;28;20615;-55
2023/06/07 12:16:58;;;;;;;2.35;1.50;;;;;;;;;;5043660;28;20197;-56
2023/06/07 12:19:25;;;;;;;2.22;1.40;;;;;;;;;;5048761;28;20193;-56
2023/06/07 12:21:56;;;;;;;2.03;1.48;;;;;;;;;;5042368;28;20545;-59
2023/06/07 12:24:23;;;;;;;1.38;1.15;;;;;;;;;;5042179;28;20228;-59
2023/06/07 12:26:56;;;;;;;2.83;1.30;;;;;;;;;;5042739;28;20203;-61
2023/06/07 12:29:29;;;;;;;1.45;1.20;;;;;;;;;;5042178;28;20188;-58
2023/06/07 12:32:00;;;;;;;1.58;1.38;;;;;;;;;;5041955;28;20185;-59
2023/06/07 12:34:29;;;;;;;2.03;1.30;;;;;;;;;;5042901;28;20192;-60
2023/06/07 12:36:56;;;;;;;2.33;1.30;;;;;;;;;;5046696;28;20207;-60
2023/06/07 12:39:28;;;;;;;1.80;1.20;;;;;;;;;;5043571;28;20269;-60
2023/06/07 12:41:55;;;;;;;2.03;1.30;;;;;;;;;;5041024;28;20200;-62
2023/06/07 12:44:23;;;;;;;2.33;1.02;;;;;;;;;;5041134;28;20319;-62
2023/06/07 12:46:51;;;;;;;2.75;1.50;;;;;;;;;;5035590;28;20228;-59
2023/06/07 12:49:18;;;;;;;1.90;1.08;;;;;;;;;;5048701;28;20621;-58
2023/06/07 12:51:46;;;;;;;3.03;1.17;;;;;;;;;;5041759;28;20247;-55
2023/06/07 12:54:13;;;;;;;1.52;1.30;;;;;;;;;;5045976;28;20742;-59
2023/06/07 12:56:41;;;;;;;3.20;1.60;;;;;;;;;;5042734;28;20224;-60
2023/06/07 12:59:08;;;;;;;1.23;1.00;;;;;;;;;;5042860;28;20232;-60
2023/06/07 13:01:36;;;;;;;2.55;1.50;;;;;;;;;;5042937;28;20220;-61
2023/06/07 13:04:03;;;;;;;2.28;1.30;;;;;;;;;;5041711;28;20243;-60
2023/06/07 13:06:31;;;;;;;1.58;1.10;;;;;;;;;;5042566;28;20224;-61
2023/06/07 13:09:11;;;;;;;2.63;1.42;;;;;;;;;;5047212;28;20277;-56
2023/06/07 13:11:38;;;;;;;2.03;1.27;;;;;;;;;;5052422;28;20231;-56
2023/06/07 13:14:06;;;;;;;1.70;1.08;;;;;;;;;;5052427;28;20320;-59
2023/06/07 13:16:34;;;;;;;1.98;1.45;;;;;;;;;;5051509;28;20247;-58
2023/06/07 13:19:01;;;;;;;1.98;1.00;;;;;;;;;;5052190;28;20303;-59
2023/06/07 13:21:29;;;;;;;1.25;0.98;;;;;;;;;;5052146;28;20235;-57
2023/06/07 13:23:57;;;;;;;1.83;1.30;;;;;;;;;;5051964;28;20228;-59
2023/06/07 13:26:25;;;;;;;3.00;1.15;;;;;;;;;;5052367;28;20234;-59
2023/06/07 13:28:52;;;;;;;3.13;1.40;;;;;;;;;;5051891;28;20782;-60
2023/06/07 13:31:19;;;;;;;1.83;1.23;;;;;;;;;;5051481;28;20629;-60
2023/06/07 13:33:46;;;;;;;3.55;1.20;;;;;;;;;;5051705;28;20307;-59
2023/06/07 13:36:15;;;;;;;2.70;1.40;;;;;;;;;;5035411;28;20235;-58
2023/06/07 13:38:42;;;;;;;1.60;1.15;;;;;;;;;;5055660;28;20278;-58
2023/06/07 13:41:09;;;;;;;1.48;1.20;;;;;;;;;;5055699;28;20219;-60
2023/06/07 13:43:37;;;;;;;1.27;1.05;;;;;;;;;;5055374;28;20265;-60
2023/06/07 13:46:07;;;;;;;1.50;1.38;;;;;;;;;;5055102;28;20597;-59
2023/06/07 13:48:35;;;;;;;2.08;1.30;;;;;;;;;;5055435;28;20623;-59
2023/06/07 13:51:04;;;;;;;2.63;1.42;;;;;;;;;;5055388;28;20232;-58
2023/06/07 13:53:31;;;;;;;1.50;1.05;;;;;;;;;;5045616;28;20623;-59
2023/06/07 13:55:58;;;;;;;2.35;1.17;;;;;;;;;;5046460;28;20224;-59
2023/06/07 13:58:31;;;;;;;1.80;1.42;;;;;;;;;;5041409;28;20228;-58
2023/06/07 14:01:02;;;;;;;3.60;1.23;;;;;;;;;;5045996;28;20277;-59
2023/06/07 14:03:30;;;;;;;2.25;1.30;;;;;;;;;;5048220;28;20219;-57
2023/06/07 14:06:00;;;;;;;1.63;1.30;;;;;;;;;;5047117;28;20297;-59
2023/06/07 14:08:27;;;;;;;1.70;1.13;;;;;;;;;;5049453;28;20705;-60
2023/06/07 14:10:55;;;;;;;3.10;1.15;;;;;;;;;;5055256;28;20232;-59
2023/06/07 14:13:27;;;;;;;3.10;1.40;;;;;;;;;;5055034;28;20223;-60
2023/06/07 14:15:54;;;;;;;1.98;1.20;;;;;;;;;;5048028;28;20701;-59
2023/06/07 14:18:22;;;;;;;2.55;1.48;;;;;;;;;;5046403;28;20220;-56
2023/06/07 14:20:49;;;;;;;2.55;1.58;;;;;;;;;;5049237;28;20216;-59
2023/06/07 14:23:16;;;;;;;2.00;1.35;;;;;;;;;;5054510;28;20228;-60
2023/06/07 14:25:44;;;;;;;1.63;1.40;;;;;;;;;;5054358;28;20236;-56
2023/06/07 14:28:11;;;;;;;2.15;1.60;;;;;;;;;;5047598;28;20547;-59
2023/06/07 14:30:39;;;;;;;1.85;1.15;;;;;;;;;;5044488;28;20760;-57
2023/06/07 14:33:06;;;;;;;1.77;1.42;;;;;;;;;;5035683;28;20220;-59
2023/06/07 14:35:34;;;;;;;3.53;1.65;;;;;;;;;;5052473;28;20224;-59
2023/06/07 14:38:01;;;;;;;2.30;1.55;;;;;;;;;;5052867;28;20243;-59
2023/06/07 14:40:28;;;;;;;1.58;1.38;;;;;;;;;;5052922;28;20223;-58
2023/06/07 14:42:55;;;;;;;2.30;1.25;;;;;;;;;;5052301;28;20688;-60
2023/06/07 14:45:24;;;;;;;4.50;1.60;;;;;;;;;;5053139;28;20244;-58
2023/06/07 14:47:52;;;;;;;1.65;1.15;;;;;;;;;;5051580;28;20788;-58
2023/06/07 14:50:19;;;;;;;1.83;1.33;;;;;;;;;;5053338;28;20232;-58
2023/06/07 14:52:46;;;;;;;2.10;1.63;;;;;;;;;;5053477;28;20722;-60
2023/06/07 14:55:14;;;;;;;2.42;1.65;;;;;;;;;;5054107;28;20227;-60
2023/06/07 14:57:41;;;;;;;2.47;1.65;;;;;;;;;;5050720;28;20713;-58